sensor_id;sensor_type;location;lat;lon;timestamp;temperature;humidity
38684;DHT22;24910;53.248;-6.134;2024-02-21T00:02:22;10.60;86.40
38684;DHT22;24910;53.248;-6.134;2024-02-21T00:04:51;10.70;86.50
38684;DHT22;24910;53.248;-6.134;2024-02-21T00:07:20;10.70;86.30
38684;DHT22;24910;53.248;-6.134;2024-02-21T00:09:49;10.70;86.30
38684;DHT22;24910;53.248;-6.134;2024-02-21T00:12:18;10.70;86.20
38684;DHT22;24910;53.248;-6.134;2024-02-21T00:14:47;10.70;86.20
38684;DHT22;24910;53.248;-6.134;2024-02-21T00:17:16;10.80;86.10
38684;DHT22;24910;53.248;-6.134;2024-02-21T00:19:46;10.80;86.00
38684;DHT22;24910;53.248;-6.134;2024-02-21T00:22:15;10.80;85.90
38684;DHT22;24910;53.248;-6.134;2024-02-21T00:24:44;10.90;86.00
38684;DHT22;24910;53.248;-6.134;2024-02-21T00:27:13;10.90;86.10
38684;DHT22;24910;53.248;-6.134;2024-02-21T00:29:42;10.90;86.10
38684;DHT22;24910;53.248;-6.134;2024-02-21T00:32:11;10.90;86.00
38684;DHT22;24910;53.248;-6.134;2024-02-21T00:34:40;10.90;85.90
38684;DHT22;24910;53.248;-6.134;2024-02-21T00:37:10;10.90;86.10
38684;DHT22;24910;53.248;-6.134;2024-02-21T00:39:39;10.80;86.10
38684;DHT22;24910;53.248;-6.134;2024-02-21T00:42:10;10.80;86.20
38684;DHT22;24910;53.248;-6.134;2024-02-21T00:44:39;10.80;86.20
38684;DHT22;24910;53.248;-6.134;2024-02-21T00:47:10;10.90;86.20
38684;DHT22;24910;53.248;-6.134;2024-02-21T00:49:39;10.90;86.30
38684;DHT22;24910;53.248;-6.134;2024-02-21T00:52:08;10.90;86.30
38684;DHT22;24910;53.248;-6.134;2024-02-21T00:54:38;10.90;86.30
38684;DHT22;24910;53.248;-6.134;2024-02-21T00:57:20;10.80;86.30
38684;DHT22;24910;53.248;-6.134;2024-02-21T00:59:49;10.90;86.40
38684;DHT22;24910;53.248;-6.134;2024-02-21T01:02:18;10.90;86.40
38684;DHT22;24910;53.248;-6.134;2024-02-21T01:04:47;10.90;86.40
38684;DHT22;24910;53.248;-6.134;2024-02-21T01:07:16;10.90;86.40
38684;DHT22;24910;53.248;-6.134;2024-02-21T01:09:47;10.90;86.50
38684;DHT22;24910;53.248;-6.134;2024-02-21T01:12:16;10.90;86.60
38684;DHT22;24910;53.248;-6.134;2024-02-21T01:14:45;10.90;86.60
38684;DHT22;24910;53.248;-6.134;2024-02-21T01:17:14;10.90;86.60
38684;DHT22;24910;53.248;-6.134;2024-02-21T01:19:45;10.90;86.70
38684;DHT22;24910;53.248;-6.134;2024-02-21T01:22:14;10.90;86.60
38684;DHT22;24910;53.248;-6.134;2024-02-21T01:24:44;10.90;86.70
38684;DHT22;24910;53.248;-6.134;2024-02-21T01:27:14;10.90;86.60
38684;DHT22;24910;53.248;-6.134;2024-02-21T01:29:43;11.00;86.60
38684;DHT22;24910;53.248;-6.134;2024-02-21T01:32:14;11.00;86.60
38684;DHT22;24910;53.248;-6.134;2024-02-21T01:34:43;11.00;86.70
38684;DHT22;24910;53.248;-6.134;2024-02-21T01:37:12;11.00;86.80
38684;DHT22;24910;53.248;-6.134;2024-02-21T01:39:41;11.00;86.70
38684;DHT22;24910;53.248;-6.134;2024-02-21T01:42:10;11.00;86.70
38684;DHT22;24910;53.248;-6.134;2024-02-21T01:44:40;11.00;86.60
38684;DHT22;24910;53.248;-6.134;2024-02-21T01:47:09;11.00;86.70
38684;DHT22;24910;53.248;-6.134;2024-02-21T01:49:41;11.00;86.70
38684;DHT22;24910;53.248;-6.134;2024-02-21T01:52:10;11.00;86.90
38684;DHT22;24910;53.248;-6.134;2024-02-21T01:54:41;11.00;87.00
38684;DHT22;24910;53.248;-6.134;2024-02-21T01:57:10;10.90;86.90
38684;DHT22;24910;53.248;-6.134;2024-02-21T01:59:41;10.90;87.10
38684;DHT22;24910;53.248;-6.134;2024-02-21T02:02:10;10.90;87.20
38684;DHT22;24910;53.248;-6.134;2024-02-21T02:04:39;10.90;87.30
38684;DHT22;24910;53.248;-6.134;2024-02-21T02:07:08;10.90;87.30
38684;DHT22;24910;53.248;-6.134;2024-02-21T02:09:37;10.90;87.40
38684;DHT22;24910;53.248;-6.134;2024-02-21T02:12:06;10.90;87.40
38684;DHT22;24910;53.248;-6.134;2024-02-21T02:14:35;10.90;87.40
38684;DHT22;24910;53.248;-6.134;2024-02-21T02:17:05;10.90;87.50
38684;DHT22;24910;53.248;-6.134;2024-02-21T02:19:34;10.90;87.60
38684;DHT22;24910;53.248;-6.134;2024-02-21T02:22:06;10.90;87.70
38684;DHT22;24910;53.248;-6.134;2024-02-21T02:24:40;10.90;87.80
38684;DHT22;24910;53.248;-6.134;2024-02-21T02:27:09;10.90;88.00
38684;DHT22;24910;53.248;-6.134;2024-02-21T02:29:37;10.90;88.00
38684;DHT22;24910;53.248;-6.134;2024-02-21T02:32:06;10.90;88.20
38684;DHT22;24910;53.248;-6.134;2024-02-21T02:34:36;10.90;88.30
38684;DHT22;24910;53.248;-6.134;2024-02-21T02:37:06;10.90;88.40
38684;DHT22;24910;53.248;-6.134;2024-02-21T02:39:35;10.80;88.50
38684;DHT22;24910;53.248;-6.134;2024-02-21T02:42:06;10.90;88.70
38684;DHT22;24910;53.248;-6.134;2024-02-21T02:44:35;10.90;88.70
38684;DHT22;24910;53.248;-6.134;2024-02-21T02:47:04;10.80;88.80
38684;DHT22;24910;53.248;-6.134;2024-02-21T02:49:32;10.80;88.90
38684;DHT22;24910;53.248;-6.134;2024-02-21T02:52:02;10.80;89.00
38684;DHT22;24910;53.248;-6.134;2024-02-21T02:54:31;10.90;89.00
38684;DHT22;24910;53.248;-6.134;2024-02-21T02:57:00;10.80;89.00
38684;DHT22;24910;53.248;-6.134;2024-02-21T02:59:32;10.90;89.10
38684;DHT22;24910;53.248;-6.134;2024-02-21T03:02:01;10.90;89.00
38684;DHT22;24910;53.248;-6.134;2024-02-21T03:04:30;10.90;89.00
38684;DHT22;24910;53.248;-6.134;2024-02-21T03:06:59;10.90;88.90
38684;DHT22;24910;53.248;-6.134;2024-02-21T03:09:28;11.00;88.90
38684;DHT22;24910;53.248;-6.134;2024-02-21T03:11:57;11.00;88.90
38684;DHT22;24910;53.248;-6.134;2024-02-21T03:14:31;11.00;89.00
38684;DHT22;24910;53.248;-6.134;2024-02-21T03:17:00;11.00;89.00
38684;DHT22;24910;53.248;-6.134;2024-02-21T03:19:30;11.00;89.00
38684;DHT22;24910;53.248;-6.134;2024-02-21T03:21:59;11.00;89.10
38684;DHT22;24910;53.248;-6.134;2024-02-21T03:24:28;11.00;89.10
38684;DHT22;24910;53.248;-6.134;2024-02-21T03:26:57;11.00;89.10
38684;DHT22;24910;53.248;-6.134;2024-02-21T03:29:26;11.00;89.10
38684;DHT22;24910;53.248;-6.134;2024-02-21T03:31:57;11.10;89.10
38684;DHT22;24910;53.248;-6.134;2024-02-21T03:34:26;11.10;89.10
38684;DHT22;24910;53.248;-6.134;2024-02-21T03:36:55;11.00;89.10
38684;DHT22;24910;53.248;-6.134;2024-02-21T03:39:24;11.10;89.20
38684;DHT22;24910;53.248;-6.134;2024-02-21T03:41:53;11.10;89.20
38684;DHT22;24910;53.248;-6.134;2024-02-21T03:44:22;11.10;89.20
38684;DHT22;24910;53.248;-6.134;2024-02-21T03:46:51;11.10;89.40
38684;DHT22;24910;53.248;-6.134;2024-02-21T03:49:22;11.10;89.50
38684;DHT22;24910;53.248;-6.134;2024-02-21T03:51:51;11.10;89.50
38684;DHT22;24910;53.248;-6.134;2024-02-21T03:54:20;11.10;89.70
38684;DHT22;24910;53.248;-6.134;2024-02-21T03:56:49;11.10;89.70
38684;DHT22;24910;53.248;-6.134;2024-02-21T03:59:18;11.20;89.80
38684;DHT22;24910;53.248;-6.134;2024-02-21T04:01:47;11.10;89.80
38684;DHT22;24910;53.248;-6.134;2024-02-21T04:04:16;11.20;90.30
38684;DHT22;24910;53.248;-6.134;2024-02-21T04:06:49;11.20;90.00
38684;DHT22;24910;53.248;-6.134;2024-02-21T04:09:18;11.10;90.00
38684;DHT22;24910;53.248;-6.134;2024-02-21T04:11:47;11.10;90.00
38684;DHT22;24910;53.248;-6.134;2024-02-21T04:14:16;11.20;90.10
38684;DHT22;24910;53.248;-6.134;2024-02-21T04:16:45;11.20;90.10
38684;DHT22;24910;53.248;-6.134;2024-02-21T04:19:14;11.20;90.20
38684;DHT22;24910;53.248;-6.134;2024-02-21T04:21:43;11.20;90.20
38684;DHT22;24910;53.248;-6.134;2024-02-21T04:24:14;11.20;90.60
38684;DHT22;24910;53.248;-6.134;2024-02-21T04:26:42;11.20;90.20
38684;DHT22;24910;53.248;-6.134;2024-02-21T04:29:12;11.30;90.30
38684;DHT22;24910;53.248;-6.134;2024-02-21T04:31:41;11.30;90.30
38684;DHT22;24910;53.248;-6.134;2024-02-21T04:34:10;11.30;90.40
38684;DHT22;24910;53.248;-6.134;2024-02-21T04:36:39;11.30;90.90
38684;DHT22;24910;53.248;-6.134;2024-02-21T04:39:08;11.30;90.50
38684;DHT22;24910;53.248;-6.134;2024-02-21T04:41:38;11.30;90.50
38684;DHT22;24910;53.248;-6.134;2024-02-21T04:44:07;11.40;90.60
38684;DHT22;24910;53.248;-6.134;2024-02-21T04:46:36;11.40;90.60
38684;DHT22;24910;53.248;-6.134;2024-02-21T04:49:05;11.40;90.60
38684;DHT22;24910;53.248;-6.134;2024-02-21T04:51:34;11.40;90.60
38684;DHT22;24910;53.248;-6.134;2024-02-21T04:54:04;11.40;90.60
38684;DHT22;24910;53.248;-6.134;2024-02-21T04:56:33;11.40;90.60
38684;DHT22;24910;53.248;-6.134;2024-02-21T04:59:04;11.40;90.60
38684;DHT22;24910;53.248;-6.134;2024-02-21T05:01:33;11.40;90.60
38684;DHT22;24910;53.248;-6.134;2024-02-21T05:04:02;11.40;90.60
38684;DHT22;24910;53.248;-6.134;2024-02-21T05:06:31;11.50;90.60
38684;DHT22;24910;53.248;-6.134;2024-02-21T05:09:00;11.50;90.60
38684;DHT22;24910;53.248;-6.134;2024-02-21T05:11:29;11.50;90.60
38684;DHT22;24910;53.248;-6.134;2024-02-21T05:13:58;11.50;90.70
38684;DHT22;24910;53.248;-6.134;2024-02-21T05:16:29;11.50;90.60
38684;DHT22;24910;53.248;-6.134;2024-02-21T05:18:58;11.50;90.70
38684;DHT22;24910;53.248;-6.134;2024-02-21T05:21:27;11.50;90.70
38684;DHT22;24910;53.248;-6.134;2024-02-21T05:23:56;11.50;90.70
38684;DHT22;24910;53.248;-6.134;2024-02-21T05:26:25;11.50;90.70
38684;DHT22;24910;53.248;-6.134;2024-02-21T05:28:54;11.50;90.80
38684;DHT22;24910;53.248;-6.134;2024-02-21T05:31:24;11.50;90.80
38684;DHT22;24910;53.248;-6.134;2024-02-21T05:33:54;11.60;90.80
38684;DHT22;24910;53.248;-6.134;2024-02-21T05:36:25;11.60;90.90
38684;DHT22;24910;53.248;-6.134;2024-02-21T05:38:55;11.60;90.90
38684;DHT22;24910;53.248;-6.134;2024-02-21T05:41:25;11.60;90.90
38684;DHT22;24910;53.248;-6.134;2024-02-21T05:43:54;11.50;90.90
38684;DHT22;24910;53.248;-6.134;2024-02-21T05:46:22;11.60;90.90
38684;DHT22;24910;53.248;-6.134;2024-02-21T05:48:53;11.60;91.30
38684;DHT22;24910;53.248;-6.134;2024-02-21T05:51:22;11.60;91.00
38684;DHT22;24910;53.248;-6.134;2024-02-21T05:53:51;11.60;91.10
38684;DHT22;24910;53.248;-6.134;2024-02-21T05:56:20;11.60;91.10
38684;DHT22;24910;53.248;-6.134;2024-02-21T05:58:49;11.60;91.20
38684;DHT22;24910;53.248;-6.134;2024-02-21T06:01:18;11.60;91.10
38684;DHT22;24910;53.248;-6.134;2024-02-21T06:03:48;11.70;91.10
38684;DHT22;24910;53.248;-6.134;2024-02-21T06:06:19;11.70;91.10
38684;DHT22;24910;53.248;-6.134;2024-02-21T06:08:49;11.60;91.10
38684;DHT22;24910;53.248;-6.134;2024-02-21T06:11:18;11.70;91.10
38684;DHT22;24910;53.248;-6.134;2024-02-21T06:13:47;11.70;91.10
38684;DHT22;24910;53.248;-6.134;2024-02-21T06:16:17;11.70;91.20
38684;DHT22;24910;53.248;-6.134;2024-02-21T06:18:45;11.70;91.20
38684;DHT22;24910;53.248;-6.134;2024-02-21T06:21:14;11.70;91.20
38684;DHT22;24910;53.248;-6.134;2024-02-21T06:23:45;11.80;91.30
38684;DHT22;24910;53.248;-6.134;2024-02-21T06:26:14;11.80;91.30
38684;DHT22;24910;53.248;-6.134;2024-02-21T06:28:43;11.90;91.30
38684;DHT22;24910;53.248;-6.134;2024-02-21T06:31:14;11.90;91.30
38684;DHT22;24910;53.248;-6.134;2024-02-21T06:33:43;11.90;91.30
38684;DHT22;24910;53.248;-6.134;2024-02-21T06:36:12;12.00;91.70
38684;DHT22;24910;53.248;-6.134;2024-02-21T06:38:41;12.00;91.30
38684;DHT22;24910;53.248;-6.134;2024-02-21T06:41:15;12.00;91.30
38684;DHT22;24910;53.248;-6.134;2024-02-21T06:43:46;12.10;91.40
38684;DHT22;24910;53.248;-6.134;2024-02-21T06:46:22;12.10;91.50
38684;DHT22;24910;53.248;-6.134;2024-02-21T06:48:51;12.10;91.40
38684;DHT22;24910;53.248;-6.134;2024-02-21T06:51:20;12.10;91.40
38684;DHT22;24910;53.248;-6.134;2024-02-21T06:53:49;12.10;91.40
38684;DHT22;24910;53.248;-6.134;2024-02-21T06:56:19;12.20;91.40
38684;DHT22;24910;53.248;-6.134;2024-02-21T06:58:48;12.20;91.50
38684;DHT22;24910;53.248;-6.134;2024-02-21T07:01:17;12.20;91.50
38684;DHT22;24910;53.248;-6.134;2024-02-21T07:03:47;12.20;91.50
38684;DHT22;24910;53.248;-6.134;2024-02-21T07:06:16;12.20;91.50
38684;DHT22;24910;53.248;-6.134;2024-02-21T07:08:45;12.20;91.60
38684;DHT22;24910;53.248;-6.134;2024-02-21T07:11:14;12.20;91.60
38684;DHT22;24910;53.248;-6.134;2024-02-21T07:13:45;12.20;91.60
38684;DHT22;24910;53.248;-6.134;2024-02-21T07:16:14;12.20;91.70
38684;DHT22;24910;53.248;-6.134;2024-02-21T07:18:43;12.20;91.70
38684;DHT22;24910;53.248;-6.134;2024-02-21T07:21:12;12.30;91.80
38684;DHT22;24910;53.248;-6.134;2024-02-21T07:23:41;12.30;91.80
38684;DHT22;24910;53.248;-6.134;2024-02-21T07:26:10;12.30;91.80
38684;DHT22;24910;53.248;-6.134;2024-02-21T07:28:39;12.30;91.80
38684;DHT22;24910;53.248;-6.134;2024-02-21T07:31:10;12.30;91.80
38684;DHT22;24910;53.248;-6.134;2024-02-21T07:33:39;12.30;91.90
38684;DHT22;24910;53.248;-6.134;2024-02-21T07:36:10;12.30;91.90
38684;DHT22;24910;53.248;-6.134;2024-02-21T07:38:39;12.40;91.90
38684;DHT22;24910;53.248;-6.134;2024-02-21T07:41:08;12.40;92.00
38684;DHT22;24910;53.248;-6.134;2024-02-21T07:43:38;12.40;92.00
38684;DHT22;24910;53.248;-6.134;2024-02-21T07:46:07;12.40;91.90
38684;DHT22;24910;53.248;-6.134;2024-02-21T07:48:37;12.40;91.90
38684;DHT22;24910;53.248;-6.134;2024-02-21T07:51:06;12.40;91.90
38684;DHT22;24910;53.248;-6.134;2024-02-21T07:53:35;12.50;91.90
38684;DHT22;24910;53.248;-6.134;2024-02-21T07:56:05;12.40;91.90
38684;DHT22;24910;53.248;-6.134;2024-02-21T07:58:34;12.50;91.90
38684;DHT22;24910;53.248;-6.134;2024-02-21T08:01:03;12.50;91.90
38684;DHT22;24910;53.248;-6.134;2024-02-21T08:03:32;12.50;91.90
38684;DHT22;24910;53.248;-6.134;2024-02-21T08:06:03;12.50;92.00
38684;DHT22;24910;53.248;-6.134;2024-02-21T08:08:32;12.50;92.00
38684;DHT22;24910;53.248;-6.134;2024-02-21T08:11:01;12.50;92.00
38684;DHT22;24910;53.248;-6.134;2024-02-21T08:13:30;12.60;92.00
38684;DHT22;24910;53.248;-6.134;2024-02-21T08:15:59;12.60;92.00
38684;DHT22;24910;53.248;-6.134;2024-02-21T08:18:28;12.60;92.00
38684;DHT22;24910;53.248;-6.134;2024-02-21T08:20:57;12.60;92.00
38684;DHT22;24910;53.248;-6.134;2024-02-21T08:23:28;12.60;92.00
38684;DHT22;24910;53.248;-6.134;2024-02-21T08:25:57;12.60;92.00
38684;DHT22;24910;53.248;-6.134;2024-02-21T08:28:26;12.60;92.00
38684;DHT22;24910;53.248;-6.134;2024-02-21T08:30:57;12.60;92.00
38684;DHT22;24910;53.248;-6.134;2024-02-21T08:33:26;12.70;92.00
38684;DHT22;24910;53.248;-6.134;2024-02-21T08:35:57;12.70;91.90
38684;DHT22;24910;53.248;-6.134;2024-02-21T08:38:28;12.70;91.90
38684;DHT22;24910;53.248;-6.134;2024-02-21T08:40:57;12.70;91.90
38684;DHT22;24910;53.248;-6.134;2024-02-21T08:43:26;12.70;91.90
38684;DHT22;24910;53.248;-6.134;2024-02-21T08:45:55;12.70;91.90
38684;DHT22;24910;53.248;-6.134;2024-02-21T08:48:23;12.80;92.00
38684;DHT22;24910;53.248;-6.134;2024-02-21T08:50:53;12.80;92.00
38684;DHT22;24910;53.248;-6.134;2024-02-21T08:53:22;12.80;92.00
38684;DHT22;24910;53.248;-6.134;2024-02-21T08:55:53;12.80;92.00
38684;DHT22;24910;53.248;-6.134;2024-02-21T08:58:22;12.90;92.00
38684;DHT22;24910;53.248;-6.134;2024-02-21T09:00:53;12.90;92.00
38684;DHT22;24910;53.248;-6.134;2024-02-21T09:03:22;13.00;92.10
38684;DHT22;24910;53.248;-6.134;2024-02-21T09:05:51;13.00;92.10
38684;DHT22;24910;53.248;-6.134;2024-02-21T09:08:20;13.00;92.00
38684;DHT22;24910;53.248;-6.134;2024-02-21T09:10:49;13.10;92.00
38684;DHT22;24910;53.248;-6.134;2024-02-21T09:13:20;13.10;92.00
38684;DHT22;24910;53.248;-6.134;2024-02-21T09:15:49;13.10;92.00
38684;DHT22;24910;53.248;-6.134;2024-02-21T09:18:18;13.10;92.00
38684;DHT22;24910;53.248;-6.134;2024-02-21T09:20:47;13.10;92.30
38684;DHT22;24910;53.248;-6.134;2024-02-21T09:23:16;13.10;91.90
38684;DHT22;24910;53.248;-6.134;2024-02-21T09:25:47;13.20;91.90
38684;DHT22;24910;53.248;-6.134;2024-02-21T09:28:16;13.20;91.90
38684;DHT22;24910;53.248;-6.134;2024-02-21T09:30:46;13.20;91.90
38684;DHT22;24910;53.248;-6.134;2024-02-21T09:33:15;13.30;91.90
38684;DHT22;24910;53.248;-6.134;2024-02-21T09:35:58;13.30;92.00
38684;DHT22;24910;53.248;-6.134;2024-02-21T09:38:27;13.40;91.90
38684;DHT22;24910;53.248;-6.134;2024-02-21T09:40:58;13.40;91.80
38684;DHT22;24910;53.248;-6.134;2024-02-21T09:43:28;13.40;91.80
38684;DHT22;24910;53.248;-6.134;2024-02-21T09:45:59;13.40;91.80
38684;DHT22;24910;53.248;-6.134;2024-02-21T09:48:30;13.50;91.80
38684;DHT22;24910;53.248;-6.134;2024-02-21T09:51:11;13.60;91.80
38684;DHT22;24910;53.248;-6.134;2024-02-21T09:53:40;13.60;91.80
38684;DHT22;24910;53.248;-6.134;2024-02-21T09:56:24;13.60;91.80
38684;DHT22;24910;53.248;-6.134;2024-02-21T09:58:53;13.70;91.80
38684;DHT22;24910;53.248;-6.134;2024-02-21T10:01:24;13.70;91.80
38684;DHT22;24910;53.248;-6.134;2024-02-21T10:04:02;13.70;91.80
38684;DHT22;24910;53.248;-6.134;2024-02-21T10:06:31;13.80;91.70
38684;DHT22;24910;53.248;-6.134;2024-02-21T10:09:01;13.80;91.70
38684;DHT22;24910;53.248;-6.134;2024-02-21T10:11:30;13.80;91.70
38684;DHT22;24910;53.248;-6.134;2024-02-21T10:14:03;13.90;91.70
38684;DHT22;24910;53.248;-6.134;2024-02-21T10:16:34;13.90;91.70
38684;DHT22;24910;53.248;-6.134;2024-02-21T10:19:05;13.90;91.70
38684;DHT22;24910;53.248;-6.134;2024-02-21T10:21:34;14.00;91.70
38684;DHT22;24910;53.248;-6.134;2024-02-21T10:24:03;14.00;91.70
38684;DHT22;24910;53.248;-6.134;2024-02-21T10:26:32;14.00;91.70
38684;DHT22;24910;53.248;-6.134;2024-02-21T10:29:01;14.00;91.70
38684;DHT22;24910;53.248;-6.134;2024-02-21T10:31:30;14.10;91.70
38684;DHT22;24910;53.248;-6.134;2024-02-21T10:34:02;14.10;91.70
38684;DHT22;24910;53.248;-6.134;2024-02-21T10:36:33;14.10;91.70
38684;DHT22;24910;53.248;-6.134;2024-02-21T10:39:01;14.20;91.70
38684;DHT22;24910;53.248;-6.134;2024-02-21T10:41:30;14.20;91.70
38684;DHT22;24910;53.248;-6.134;2024-02-21T10:44:00;14.20;91.70
38684;DHT22;24910;53.248;-6.134;2024-02-21T10:46:32;14.30;91.70
38684;DHT22;24910;53.248;-6.134;2024-02-21T10:49:06;14.30;91.70
38684;DHT22;24910;53.248;-6.134;2024-02-21T10:51:39;14.40;91.70
38684;DHT22;24910;53.248;-6.134;2024-02-21T10:54:13;14.40;91.70
38684;DHT22;24910;53.248;-6.134;2024-02-21T10:56:49;14.50;91.70
38684;DHT22;24910;53.248;-6.134;2024-02-21T10:59:19;14.50;91.70
38684;DHT22;24910;53.248;-6.134;2024-02-21T11:01:48;14.50;91.70
38684;DHT22;24910;53.248;-6.134;2024-02-21T11:04:20;14.50;91.80
38684;DHT22;24910;53.248;-6.134;2024-02-21T11:06:50;14.60;91.80
38684;DHT22;24910;53.248;-6.134;2024-02-21T11:09:29;14.70;91.80
38684;DHT22;24910;53.248;-6.134;2024-02-21T11:11:58;14.70;91.80
38684;DHT22;24910;53.248;-6.134;2024-02-21T11:14:28;14.70;91.70
38684;DHT22;24910;53.248;-6.134;2024-02-21T11:17:01;14.70;91.70
38684;DHT22;24910;53.248;-6.134;2024-02-21T11:19:32;14.60;91.70
38684;DHT22;24910;53.248;-6.134;2024-02-21T11:22:01;14.70;91.70
38684;DHT22;24910;53.248;-6.134;2024-02-21T11:24:31;14.70;91.70
38684;DHT22;24910;53.248;-6.134;2024-02-21T11:27:11;14.70;91.70
38684;DHT22;24910;53.248;-6.134;2024-02-21T11:29:40;14.70;91.60
38684;DHT22;24910;53.248;-6.134;2024-02-21T11:32:10;14.60;91.60
38684;DHT22;24910;53.248;-6.134;2024-02-21T11:34:41;14.70;91.70
38684;DHT22;24910;53.248;-6.134;2024-02-21T11:37:13;14.60;91.70
38684;DHT22;24910;53.248;-6.134;2024-02-21T11:39:43;14.60;91.70
38684;DHT22;24910;53.248;-6.134;2024-02-21T11:42:13;14.50;91.70
38684;DHT22;24910;53.248;-6.134;2024-02-21T11:44:42;14.50;91.70
38684;DHT22;24910;53.248;-6.134;2024-02-21T11:47:11;14.50;91.70
38684;DHT22;24910;53.248;-6.134;2024-02-21T11:49:42;14.40;91.70
38684;DHT22;24910;53.248;-6.134;2024-02-21T11:52:11;14.40;91.70
38684;DHT22;24910;53.248;-6.134;2024-02-21T11:54:43;14.40;91.60
38684;DHT22;24910;53.248;-6.134;2024-02-21T11:57:12;14.40;91.60
38684;DHT22;24910;53.248;-6.134;2024-02-21T11:59:41;14.40;91.60
38684;DHT22;24910;53.248;-6.134;2024-02-21T12:02:10;14.40;91.50
38684;DHT22;24910;53.248;-6.134;2024-02-21T12:04:39;14.40;91.50
38684;DHT22;24910;53.248;-6.134;2024-02-21T12:07:09;14.50;91.50
38684;DHT22;24910;53.248;-6.134;2024-02-21T12:09:41;14.60;91.40
38684;DHT22;24910;53.248;-6.134;2024-02-21T12:12:10;14.60;91.30
38684;DHT22;24910;53.248;-6.134;2024-02-21T12:14:39;14.60;91.20
38684;DHT22;24910;53.248;-6.134;2024-02-21T12:17:08;14.70;91.20
38684;DHT22;24910;53.248;-6.134;2024-02-21T12:19:37;14.70;91.10
38684;DHT22;24910;53.248;-6.134;2024-02-21T12:22:06;14.80;91.10
38684;DHT22;24910;53.248;-6.134;2024-02-21T12:24:37;14.80;90.90
38684;DHT22;24910;53.248;-6.134;2024-02-21T12:27:07;14.90;90.90
38684;DHT22;24910;53.248;-6.134;2024-02-21T12:29:36;14.80;90.80
38684;DHT22;24910;53.248;-6.134;2024-02-21T12:32:05;14.80;90.80
38684;DHT22;24910;53.248;-6.134;2024-02-21T12:34:34;14.70;90.80
38684;DHT22;24910;53.248;-6.134;2024-02-21T12:37:19;14.60;90.80
38684;DHT22;24910;53.248;-6.134;2024-02-21T12:39:50;14.60;90.90
38684;DHT22;24910;53.248;-6.134;2024-02-21T12:42:19;14.60;90.90
38684;DHT22;24910;53.248;-6.134;2024-02-21T12:44:48;14.60;90.90
38684;DHT22;24910;53.248;-6.134;2024-02-21T12:47:17;14.60;90.80
38684;DHT22;24910;53.248;-6.134;2024-02-21T12:49:47;14.60;90.80
38684;DHT22;24910;53.248;-6.134;2024-02-21T12:52:16;14.50;90.70
38684;DHT22;24910;53.248;-6.134;2024-02-21T12:54:45;14.50;90.70
38684;DHT22;24910;53.248;-6.134;2024-02-21T12:57:16;14.50;90.70
38684;DHT22;24910;53.248;-6.134;2024-02-21T12:59:45;14.50;90.70
38684;DHT22;24910;53.248;-6.134;2024-02-21T13:02:14;14.50;90.60
38684;DHT22;24910;53.248;-6.134;2024-02-21T13:04:43;14.50;90.60
38684;DHT22;24910;53.248;-6.134;2024-02-21T13:07:12;14.60;90.60
38684;DHT22;24910;53.248;-6.134;2024-02-21T13:09:41;14.60;90.50
38684;DHT22;24910;53.248;-6.134;2024-02-21T13:12:10;14.70;90.50
38684;DHT22;24910;53.248;-6.134;2024-02-21T13:14:41;14.70;90.30
38684;DHT22;24910;53.248;-6.134;2024-02-21T13:17:11;14.80;90.20
38684;DHT22;24910;53.248;-6.134;2024-02-21T13:19:42;14.80;90.20
38684;DHT22;24910;53.248;-6.134;2024-02-21T13:22:11;14.90;90.00
38684;DHT22;24910;53.248;-6.134;2024-02-21T13:24:40;14.90;90.00
38684;DHT22;24910;53.248;-6.134;2024-02-21T13:27:09;15.00;89.90
38684;DHT22;24910;53.248;-6.134;2024-02-21T13:29:41;15.00;89.70
38684;DHT22;24910;53.248;-6.134;2024-02-21T13:32:10;15.00;89.50
38684;DHT22;24910;53.248;-6.134;2024-02-21T13:34:38;15.00;89.50
38684;DHT22;24910;53.248;-6.134;2024-02-21T13:37:07;14.90;89.50
38684;DHT22;24910;53.248;-6.134;2024-02-21T13:39:37;14.90;90.10
38684;DHT22;24910;53.248;-6.134;2024-02-21T13:42:06;14.80;89.40
38684;DHT22;24910;53.248;-6.134;2024-02-21T13:44:35;14.80;89.60
38684;DHT22;24910;53.248;-6.134;2024-02-21T13:47:06;14.70;89.60
38684;DHT22;24910;53.248;-6.134;2024-02-21T13:49:36;14.70;89.60
38684;DHT22;24910;53.248;-6.134;2024-02-21T13:52:05;14.70;89.80
38684;DHT22;24910;53.248;-6.134;2024-02-21T13:54:34;14.60;89.80
38684;DHT22;24910;53.248;-6.134;2024-02-21T13:57:03;14.60;89.90
38684;DHT22;24910;53.248;-6.134;2024-02-21T13:59:32;14.60;89.90
38684;DHT22;24910;53.248;-6.134;2024-02-21T14:02:02;14.60;89.90
38684;DHT22;24910;53.248;-6.134;2024-02-21T14:04:32;14.50;89.80
38684;DHT22;24910;53.248;-6.134;2024-02-21T14:07:01;14.60;89.90
38684;DHT22;24910;53.248;-6.134;2024-02-21T14:09:30;14.60;90.00
38684;DHT22;24910;53.248;-6.134;2024-02-21T14:12:00;14.60;89.90
38684;DHT22;24910;53.248;-6.134;2024-02-21T14:14:29;14.60;89.90
38684;DHT22;24910;53.248;-6.134;2024-02-21T14:16:58;14.60;89.80
38684;DHT22;24910;53.248;-6.134;2024-02-21T14:19:28;14.60;89.90
38684;DHT22;24910;53.248;-6.134;2024-02-21T14:21:58;14.60;89.70
38684;DHT22;24910;53.248;-6.134;2024-02-21T14:24:27;14.60;89.80
38684;DHT22;24910;53.248;-6.134;2024-02-21T14:26:56;14.50;89.80
38684;DHT22;24910;53.248;-6.134;2024-02-21T14:29:25;14.50;89.80
38684;DHT22;24910;53.248;-6.134;2024-02-21T14:31:54;14.40;89.90
38684;DHT22;24910;53.248;-6.134;2024-02-21T14:34:23;14.30;90.00
38684;DHT22;24910;53.248;-6.134;2024-02-21T14:36:54;14.30;90.10
38684;DHT22;24910;53.248;-6.134;2024-02-21T14:39:25;14.20;90.00
38684;DHT22;24910;53.248;-6.134;2024-02-21T14:41:54;14.20;90.00
38684;DHT22;24910;53.248;-6.134;2024-02-21T14:44:23;14.20;90.00
38684;DHT22;24910;53.248;-6.134;2024-02-21T14:46:52;14.20;90.00
38684;DHT22;24910;53.248;-6.134;2024-02-21T14:49:21;14.20;90.00
38684;DHT22;24910;53.248;-6.134;2024-02-21T14:51:50;14.20;90.20
38684;DHT22;24910;53.248;-6.134;2024-02-21T14:54:19;14.20;89.90
38684;DHT22;24910;53.248;-6.134;2024-02-21T14:56:50;14.30;89.90
38684;DHT22;24910;53.248;-6.134;2024-02-21T14:59:19;14.30;89.80
38684;DHT22;24910;53.248;-6.134;2024-02-21T15:02:00;14.40;89.80
38684;DHT22;24910;53.248;-6.134;2024-02-21T15:04:29;14.40;89.60
38684;DHT22;24910;53.248;-6.134;2024-02-21T15:06:59;14.50;89.50
38684;DHT22;24910;53.248;-6.134;2024-02-21T15:09:28;14.50;89.50
38684;DHT22;24910;53.248;-6.134;2024-02-21T15:11:59;14.60;89.40
38684;DHT22;24910;53.248;-6.134;2024-02-21T15:14:28;14.60;89.20
38684;DHT22;24910;53.248;-6.134;2024-02-21T15:16:57;14.60;89.10
38684;DHT22;24910;53.248;-6.134;2024-02-21T15:19:26;14.70;89.00
38684;DHT22;24910;53.248;-6.134;2024-02-21T15:21:55;14.70;89.00
38684;DHT22;24910;53.248;-6.134;2024-02-21T15:24:24;14.60;89.00
38684;DHT22;24910;53.248;-6.134;2024-02-21T15:26:53;14.60;89.00
38684;DHT22;24910;53.248;-6.134;2024-02-21T15:29:23;14.60;89.00
38684;DHT22;24910;53.248;-6.134;2024-02-21T15:31:52;14.60;89.00